Surface observations / UK / EGBB

Quebec | Canada | USA | France | UK | Europe | Elsewhere

Display: Info & Location for EGBB | Help decoding METAR

EGBB BIRMINGHAM AIRPORT -- UK
Raw surface observations for station EGBB
EGBB 170820Z 16006KT 2600 BR OVC004 04/04 Q1034=
EGBB 170750Z 16006KT 3000 BR BKN004 OVC007 04/04 Q1034=
EGBB 170720Z 16005KT 4800 BR BKN005 BKN012 04/04 Q1033=
EGBB 170650Z 17005KT 4800 BR BKN008 04/04 Q1033=
EGBB 170620Z 16006KT 2200 BR BKN004 04/04 Q1033=
EGBB 170550Z 17004KT 2300 BR OVC003 04/04 Q1033=
EGBB 170520Z 16006KT 2300 BR OVC003 04/04 Q1032=
EGBB 170450Z 15006KT 2100 BR BKN004 OVC007 04/04 Q1032=
EGBB 170420Z 15004KT 3000 BR SCT009 BKN013 OVC020 04/04 Q1032=
EGBB 170350Z 16003KT 5000 BR FEW007 BKN012 OVC021 04/04 Q1032=
EGBB 170320Z 15004KT 5000 BR BKN004 OVC008 04/04 Q1032=
EGBB 170250Z 15004KT 5000 BR BKN005 OVC008 04/04 Q1032=
EGBB 170220Z 17003KT 5000 BR BKN004 OVC009 04/04 Q1032=
EGBB 170150Z 16006KT 5000 BR OVC004 04/04 Q1032=
EGBB 170120Z 15006KT 4000 BR OVC004 04/04 Q1031=
EGBB 170050Z 17006KT 3500 BR OVC003 04/04 Q1031=
EGBB 170020Z 16009KT 3500 BR BKN002 OVC006 04/04 Q1031 REDZ=
EGBB 162350Z 15006KT 1400 R15/P1500 DZ OVC002 04/04 Q1031=
EGBB 162320Z 15008KT 1100 R15/P1500 BR OVC002 04/04 Q1031=
EGBB 162250Z 13008KT 2300 BR OVC002 05/05 Q1031=
EGBB 162220Z 14008KT 3100 -RA OVC004 05/05 Q1031=
EGBB 162150Z 13009KT 7000 OVC003 05/05 Q1030=
EGBB 162120Z 14006KT 4400 BR OVC004 05/05 Q1030=
EGBB 162050Z 12007KT 080V150 2000 -DZ BR BKN002 OVC004 06/06 Q1030=
EGBB 162020Z 13004KT 1200 R15/P1500 -DZ BR BKN002 OVC003 06/06 Q1030=
EGBB 161950Z 15004KT 1200 R15/P1500 -DZ BR BKN002 OVC003 06/06 Q1029 REDZ=
EGBB 161920Z 14004KT 1200 R15/P1500 DZ BKN002 OVC003 06/06 Q1029=
EGBB 161850Z 12004KT 100V160 0900 R15/P1500 FG OVC002 07/07 Q1028=
EGBB 161820Z 12003KT 1200 R15/P1500 BR OVC002 07/07 Q1028=
EGBB 161750Z 11004KT 1500 -RA BR OVC003 07/07 Q1028=
EGBB 161720Z 11004KT 080V180 0800 FG BKN002 OVC003 07/07 Q1028 REDZ=
EGBB 161650Z VRB03KT 1500 DZ BR OVC003 07/07 Q1027 REDZ=
EGBB 161620Z VRB02KT 1300 R15/P1500 DZ BR BKN003 OVC004 07/07 Q1027=
EGBB 161550Z 16003KT 1800 -DZ BR BKN003 OVC005 07/07 Q1027=
EGBB 161520Z 13002KT 1700 BR BKN003 OVC006 07/07 Q1027=
EGBB 161450Z VRB02KT 1600 BR OVC004 07/07 Q1027 REDZ=
EGBB 161420Z VRB02KT 1400 DZ BR OVC004 07/07 Q1027=
EGBB 161350Z VRB03KT 1600 -DZ BR OVC004 06/06 Q1027=
EGBB 161320Z 15004KT 1800 -DZ OVC005 06/06 Q1027 REDZ=
EGBB 161250Z 15005KT 1800 +DZ OVC002 06/06 Q1027 REDZ=
EGBB 161220Z 15005KT 1200 R15/P1500 +DZ OVC002 06/06 Q1027=
EGBB 161150Z 14005KT 1200 R15/P1500 +DZ OVC002 06/06 Q1027=
EGBB 161120Z 13004KT 1000 R15/P1500 +DZ OVC002 06/06 Q1027=
EGBB 161050Z 14005KT 1200 R15/P1500 DZ OVC002 07/07 Q1026=
EGBB 161020Z VRB03KT 1300 R15/P1500 DZ OVC002 06/06 Q1026 REDZ=
EGBB 160950Z 14004KT 110V170 1000 R15/P1500 +DZ OVC002 07/07 Q1026 RERA=
EGBB 160920Z 11004KT 350V160 1100 R15/P1500 RADZ OVC002 07/07 Q1026 REDZ=
EGBB 160850Z 33005KT 310V020 1400 R15/P1500 RADZ BKN003 OVC006 08/08 Q1026 RERA REDZ=
EGBB 160820Z 32005KT 3300 DZ BKN004 08/08 Q1026 REDZ=